sensor_id;sensor_type;location;lat;lon;timestamp;pressure;altitude;pressure_sealevel;temperature;humidity
77889;BME280;67082;41.704;44.768;2023-03-30T00:01:27;94957.03;;;7.70;56.89
77889;BME280;67082;41.704;44.768;2023-03-30T00:03:55;94955.56;;;7.57;57.27
77889;BME280;67082;41.704;44.768;2023-03-30T00:06:26;94972.31;;;7.62;56.19
77889;BME280;67082;41.704;44.768;2023-03-30T00:08:54;94957.81;;;7.71;55.82
77889;BME280;67082;41.704;44.768;2023-03-30T00:11:25;94974.94;;;7.66;56.28
77889;BME280;67082;41.704;44.768;2023-03-30T00:13:54;94974.47;;;7.89;56.83
77889;BME280;67082;41.704;44.768;2023-03-30T00:16:22;94961.75;;;7.61;56.70
77889;BME280;67082;41.704;44.768;2023-03-30T00:18:51;94971.50;;;7.83;55.44
77889;BME280;67082;41.704;44.768;2023-03-30T00:21:19;94993.72;;;7.80;55.08
77889;BME280;67082;41.704;44.768;2023-03-30T00:23:49;94999.50;;;7.73;57.01
77889;BME280;67082;41.704;44.768;2023-03-30T00:26:19;95048.47;;;7.69;56.18
77889;BME280;67082;41.704;44.768;2023-03-30T00:28:49;95024.72;;;7.62;55.81
77889;BME280;67082;41.704;44.768;2023-03-30T00:31:17;95029.69;;;7.55;56.28
77889;BME280;67082;41.704;44.768;2023-03-30T00:33:46;95020.97;;;7.78;55.60
77889;BME280;67082;41.704;44.768;2023-03-30T00:36:15;95013.59;;;7.75;54.86
77889;BME280;67082;41.704;44.768;2023-03-30T00:38:44;95026.41;;;7.90;54.55
77889;BME280;67082;41.704;44.768;2023-03-30T00:41:13;95041.03;;;7.78;53.73
77889;BME280;67082;41.704;44.768;2023-03-30T00:43:59;95057.34;;;7.85;55.29
77889;BME280;67082;41.704;44.768;2023-03-30T00:46:29;95085.41;;;7.93;54.66
77889;BME280;67082;41.704;44.768;2023-03-30T00:49:04;95083.88;;;7.92;55.06
77889;BME280;67082;41.704;44.768;2023-03-30T00:51:36;95062.53;;;7.62;53.28
77889;BME280;67082;41.704;44.768;2023-03-30T00:54:09;95077.13;;;7.50;54.19
77889;BME280;67082;41.704;44.768;2023-03-30T00:56:39;95065.16;;;7.65;53.72
77889;BME280;67082;41.704;44.768;2023-03-30T00:59:09;95112.38;;;7.89;52.89
77889;BME280;67082;41.704;44.768;2023-03-30T01:01:38;95129.75;;;7.77;53.96
77889;BME280;67082;41.704;44.768;2023-03-30T01:04:08;95119.69;;;7.83;53.98
77889;BME280;67082;41.704;44.768;2023-03-30T01:06:37;95127.00;;;7.77;54.31
77889;BME280;67082;41.704;44.768;2023-03-30T01:09:07;95125.03;;;7.65;53.66
77889;BME280;67082;41.704;44.768;2023-03-30T01:11:36;95114.72;;;7.78;53.75
77889;BME280;67082;41.704;44.768;2023-03-30T01:14:07;95087.97;;;7.66;53.80
77889;BME280;67082;41.704;44.768;2023-03-30T01:17:02;95104.28;;;7.73;54.13
77889;BME280;67082;41.704;44.768;2023-03-30T01:28:54;95101.00;;;7.87;53.61
77889;BME280;67082;41.704;44.768;2023-03-30T01:34:12;95136.28;;;7.92;52.95
77889;BME280;67082;41.704;44.768;2023-03-30T01:40:23;95109.25;;;7.65;53.16
77889;BME280;67082;41.704;44.768;2023-03-30T01:43:14;95122.09;;;7.81;54.46
77889;BME280;67082;41.704;44.768;2023-03-30T01:45:58;95133.13;;;7.81;53.84
77889;BME280;67082;41.704;44.768;2023-03-30T01:48:42;95139.00;;;7.83;53.43
77889;BME280;67082;41.704;44.768;2023-03-30T01:51:26;95143.44;;;7.68;52.99
77889;BME280;67082;41.704;44.768;2023-03-30T01:54:09;95122.47;;;7.70;53.90
77889;BME280;67082;41.704;44.768;2023-03-30T01:56:46;95149.94;;;7.74;53.04
77889;BME280;67082;41.704;44.768;2023-03-30T01:59:34;95104.19;;;7.64;52.65
77889;BME280;67082;41.704;44.768;2023-03-30T02:02:07;95121.53;;;7.86;52.25
77889;BME280;67082;41.704;44.768;2023-03-30T02:04:39;95107.84;;;7.61;52.83
77889;BME280;67082;41.704;44.768;2023-03-30T02:07:28;95130.38;;;7.47;52.88
77889;BME280;67082;41.704;44.768;2023-03-30T02:10:05;95125.50;;;7.51;52.81
77889;BME280;67082;41.704;44.768;2023-03-30T02:12:35;95105.44;;;7.50;52.62
77889;BME280;67082;41.704;44.768;2023-03-30T02:15:07;95142.63;;;7.46;52.08
77889;BME280;67082;41.704;44.768;2023-03-30T02:17:37;95139.63;;;7.53;51.88
77889;BME280;67082;41.704;44.768;2023-03-30T02:20:05;95122.78;;;7.38;53.52
77889;BME280;67082;41.704;44.768;2023-03-30T02:22:38;95123.03;;;7.31;52.36
77889;BME280;67082;41.704;44.768;2023-03-30T02:25:06;95123.81;;;7.32;53.46
77889;BME280;67082;41.704;44.768;2023-03-30T02:27:35;95133.06;;;7.38;52.16
77889;BME280;67082;41.704;44.768;2023-03-30T02:30:09;95138.03;;;7.30;53.04
77889;BME280;67082;41.704;44.768;2023-03-30T02:32:43;95158.28;;;7.49;52.48
77889;BME280;67082;41.704;44.768;2023-03-30T02:43:29;95124.97;;;7.43;52.35
77889;BME280;67082;41.704;44.768;2023-03-30T02:46:14;95120.50;;;7.37;52.30
77889;BME280;67082;41.704;44.768;2023-03-30T02:51:33;95156.31;;;7.37;51.36
77889;BME280;67082;41.704;44.768;2023-03-30T02:54:48;95155.28;;;7.43;51.90
77889;BME280;67082;41.704;44.768;2023-03-30T02:58:08;95145.72;;;7.35;51.39
77889;BME280;67082;41.704;44.768;2023-03-30T03:03:58;95163.88;;;7.58;50.98
77889;BME280;67082;41.704;44.768;2023-03-30T03:06:32;95172.91;;;7.71;50.69
77889;BME280;67082;41.704;44.768;2023-03-30T03:09:01;95179.53;;;7.61;50.62
77889;BME280;67082;41.704;44.768;2023-03-30T03:11:32;95163.53;;;7.68;51.05
77889;BME280;67082;41.704;44.768;2023-03-30T03:14:00;95181.59;;;7.69;50.84
77889;BME280;67082;41.704;44.768;2023-03-30T03:16:31;95182.19;;;7.52;51.01
77889;BME280;67082;41.704;44.768;2023-03-30T03:19:18;95173.22;;;7.73;50.00
77889;BME280;67082;41.704;44.768;2023-03-30T03:21:49;95152.81;;;7.70;49.44
77889;BME280;67082;41.704;44.768;2023-03-30T03:24:18;95177.78;;;7.88;48.54
77889;BME280;67082;41.704;44.768;2023-03-30T03:27:04;95172.66;;;7.78;49.03
77889;BME280;67082;41.704;44.768;2023-03-30T03:29:44;95192.69;;;7.91;50.17
77889;BME280;67082;41.704;44.768;2023-03-30T03:32:12;95186.59;;;7.96;49.08
77889;BME280;67082;41.704;44.768;2023-03-30T03:34:44;95197.06;;;8.01;48.68
77889;BME280;67082;41.704;44.768;2023-03-30T03:37:13;95193.03;;;7.80;48.86
77889;BME280;67082;41.704;44.768;2023-03-30T03:39:44;95192.69;;;7.91;48.80
77889;BME280;67082;41.704;44.768;2023-03-30T03:42:14;95193.13;;;7.89;49.26
77889;BME280;67082;41.704;44.768;2023-03-30T03:44:57;95206.56;;;8.00;49.13
77889;BME280;67082;41.704;44.768;2023-03-30T03:47:25;95210.63;;;7.95;48.39
77889;BME280;67082;41.704;44.768;2023-03-30T03:49:53;95217.13;;;8.01;49.40
77889;BME280;67082;41.704;44.768;2023-03-30T03:52:21;95217.41;;;8.16;48.57
77889;BME280;67082;41.704;44.768;2023-03-30T03:54:50;95201.72;;;8.25;48.81
77889;BME280;67082;41.704;44.768;2023-03-30T03:57:17;95216.44;;;8.10;48.05
77889;BME280;67082;41.704;44.768;2023-03-30T03:59:47;95216.31;;;8.13;48.51
77889;BME280;67082;41.704;44.768;2023-03-30T04:02:15;95218.63;;;8.15;48.26
77889;BME280;67082;41.704;44.768;2023-03-30T04:04:43;95213.91;;;8.15;49.40
77889;BME280;67082;41.704;44.768;2023-03-30T04:07:11;95225.22;;;8.30;48.09
77889;BME280;67082;41.704;44.768;2023-03-30T04:09:40;95233.38;;;8.33;48.32
77889;BME280;67082;41.704;44.768;2023-03-30T04:12:20;95196.91;;;8.17;48.25
77889;BME280;67082;41.704;44.768;2023-03-30T04:15:20;95215.22;;;8.45;48.56
77889;BME280;67082;41.704;44.768;2023-03-30T04:18:06;95204.78;;;8.40;47.87
77889;BME280;67082;41.704;44.768;2023-03-30T04:20:51;95207.13;;;8.50;47.83
77889;BME280;67082;41.704;44.768;2023-03-30T04:23:42;95208.84;;;8.57;48.08
77889;BME280;67082;41.704;44.768;2023-03-30T04:26:18;95210.84;;;8.56;47.42
77889;BME280;67082;41.704;44.768;2023-03-30T04:28:56;95209.31;;;8.55;47.46
77889;BME280;67082;41.704;44.768;2023-03-30T04:31:33;95223.31;;;8.61;46.54
77889;BME280;67082;41.704;44.768;2023-03-30T04:34:15;95199.22;;;8.61;47.42
77889;BME280;67082;41.704;44.768;2023-03-30T04:37:23;95211.25;;;8.46;47.87
77889;BME280;67082;41.704;44.768;2023-03-30T04:40:26;95211.09;;;8.71;46.79
77889;BME280;67082;41.704;44.768;2023-03-30T04:43:27;95185.66;;;8.76;46.48
77889;BME280;67082;41.704;44.768;2023-03-30T04:46:15;95220.59;;;8.91;47.38
77889;BME280;67082;41.704;44.768;2023-03-30T04:49:02;95196.53;;;9.01;47.20
77889;BME280;67082;41.704;44.768;2023-03-30T04:52:08;95215.84;;;8.92;46.46
77889;BME280;67082;41.704;44.768;2023-03-30T04:54:55;95210.38;;;8.79;47.32
77889;BME280;67082;41.704;44.768;2023-03-30T04:57:43;95205.03;;;9.06;46.47
77889;BME280;67082;41.704;44.768;2023-03-30T05:00:41;95215.06;;;9.22;46.36
77889;BME280;67082;41.704;44.768;2023-03-30T05:03:37;95219.78;;;8.82;47.09
77889;BME280;67082;41.704;44.768;2023-03-30T05:06:22;95214.63;;;8.93;46.29
77889;BME280;67082;41.704;44.768;2023-03-30T05:09:40;95216.19;;;8.72;47.19
77889;BME280;67082;41.704;44.768;2023-03-30T05:12:22;95213.97;;;8.89;46.85
77889;BME280;67082;41.704;44.768;2023-03-30T05:15:13;95216.50;;;8.74;46.89
77889;BME280;67082;41.704;44.768;2023-03-30T05:18:04;95205.41;;;8.96;46.39
77889;BME280;67082;41.704;44.768;2023-03-30T05:20:48;95222.06;;;9.14;46.96
77889;BME280;67082;41.704;44.768;2023-03-30T05:23:37;95216.47;;;9.26;46.71
77889;BME280;67082;41.704;44.768;2023-03-30T05:26:28;95208.53;;;9.37;45.89
77889;BME280;67082;41.704;44.768;2023-03-30T05:29:35;95215.44;;;9.42;46.19
77889;BME280;67082;41.704;44.768;2023-03-30T05:32:24;95217.84;;;9.31;46.02
77889;BME280;67082;41.704;44.768;2023-03-30T05:35:16;95176.88;;;9.38;45.99
77889;BME280;67082;41.704;44.768;2023-03-30T05:38:05;95199.59;;;9.33;46.15
77889;BME280;67082;41.704;44.768;2023-03-30T05:41:12;95206.19;;;9.36;46.12
77889;BME280;67082;41.704;44.768;2023-03-30T05:44:01;95208.81;;;9.30;45.92
77889;BME280;67082;41.704;44.768;2023-03-30T05:46:55;95200.31;;;9.25;45.22
77889;BME280;67082;41.704;44.768;2023-03-30T05:49:49;95188.47;;;9.15;46.14
77889;BME280;67082;41.704;44.768;2023-03-30T05:52:23;95194.06;;;9.33;45.96
77889;BME280;67082;41.704;44.768;2023-03-30T05:55:17;95205.53;;;9.23;45.39
77889;BME280;67082;41.704;44.768;2023-03-30T05:58:12;95167.09;;;9.46;44.53
77889;BME280;67082;41.704;44.768;2023-03-30T06:01:15;95182.63;;;9.71;44.46
77889;BME280;67082;41.704;44.768;2023-03-30T06:03:46;95188.13;;;9.53;44.81
77889;BME280;67082;41.704;44.768;2023-03-30T06:06:15;95163.25;;;9.53;44.36
77889;BME280;67082;41.704;44.768;2023-03-30T06:08:47;95195.41;;;9.77;44.48
77889;BME280;67082;41.704;44.768;2023-03-30T06:11:20;95178.94;;;9.56;45.03
77889;BME280;67082;41.704;44.768;2023-03-30T06:13:57;95167.91;;;9.83;44.03
77889;BME280;67082;41.704;44.768;2023-03-30T06:16:27;95166.94;;;9.59;44.35
77889;BME280;67082;41.704;44.768;2023-03-30T06:18:56;95165.13;;;9.74;44.10
77889;BME280;67082;41.704;44.768;2023-03-30T06:21:24;95181.13;;;9.88;43.96
77889;BME280;67082;41.704;44.768;2023-03-30T06:24:05;95174.06;;;9.87;44.46
77889;BME280;67082;41.704;44.768;2023-03-30T06:26:36;95179.91;;;9.98;43.82
77889;BME280;67082;41.704;44.768;2023-03-30T06:29:04;95164.22;;;9.95;43.63
77889;BME280;67082;41.704;44.768;2023-03-30T06:31:33;95159.03;;;10.06;44.12
77889;BME280;67082;41.704;44.768;2023-03-30T06:34:19;95173.34;;;10.22;44.34
77889;BME280;67082;41.704;44.768;2023-03-30T06:36:47;95160.88;;;10.18;43.70
77889;BME280;67082;41.704;44.768;2023-03-30T06:39:16;95169.81;;;10.31;43.46
77889;BME280;67082;41.704;44.768;2023-03-30T06:41:44;95141.97;;;10.25;43.40
77889;BME280;67082;41.704;44.768;2023-03-30T06:44:31;95149.94;;;10.32;43.46
77889;BME280;67082;41.704;44.768;2023-03-30T06:47:02;95168.28;;;10.21;43.92
77889;BME280;67082;41.704;44.768;2023-03-30T06:49:32;95151.19;;;10.13;43.60
77889;BME280;67082;41.704;44.768;2023-03-30T06:52:19;95135.50;;;10.28;43.94
77889;BME280;67082;41.704;44.768;2023-03-30T06:54:47;95166.88;;;10.07;43.44
77889;BME280;67082;41.704;44.768;2023-03-30T06:57:16;95157.50;;;10.23;43.09
77889;BME280;67082;41.704;44.768;2023-03-30T06:59:44;95177.38;;;10.21;42.80
77889;BME280;67082;41.704;44.768;2023-03-30T07:02:21;95155.94;;;10.40;42.85
77889;BME280;67082;41.704;44.768;2023-03-30T07:05:10;95125.50;;;10.31;42.35
77889;BME280;67082;41.704;44.768;2023-03-30T07:07:53;95155.34;;;10.45;42.66
77889;BME280;67082;41.704;44.768;2023-03-30T07:10:22;95156.88;;;10.37;41.83
77889;BME280;67082;41.704;44.768;2023-03-30T07:12:51;95151.22;;;10.22;42.31
77889;BME280;67082;41.704;44.768;2023-03-30T07:15:20;95157.63;;;10.01;42.72
77889;BME280;67082;41.704;44.768;2023-03-30T07:17:49;95147.94;;;9.88;43.75
77889;BME280;67082;41.704;44.768;2023-03-30T07:20:17;95142.75;;;10.26;42.99
77889;BME280;67082;41.704;44.768;2023-03-30T07:23:16;95144.28;;;10.27;41.79
77889;BME280;67082;41.704;44.768;2023-03-30T07:25:46;95143.47;;;10.53;41.11
77889;BME280;67082;41.704;44.768;2023-03-30T07:28:22;95152.09;;;10.46;41.03
77889;BME280;67082;41.704;44.768;2023-03-30T07:30:51;95162.06;;;10.62;41.01
77889;BME280;67082;41.704;44.768;2023-03-30T07:33:21;95135.34;;;10.32;41.00
77889;BME280;67082;41.704;44.768;2023-03-30T07:35:49;95134.38;;;10.62;41.58
77889;BME280;67082;41.704;44.768;2023-03-30T07:38:22;95135.03;;;10.39;41.11
77889;BME280;67082;41.704;44.768;2023-03-30T07:40:53;95109.94;;;10.51;40.97
77889;BME280;67082;41.704;44.768;2023-03-30T07:43:23;95116.84;;;10.56;41.14
77889;BME280;67082;41.704;44.768;2023-03-30T07:45:51;95163.34;;;10.43;41.07
77889;BME280;67082;41.704;44.768;2023-03-30T07:48:29;95118.28;;;10.33;41.02
77889;BME280;67082;41.704;44.768;2023-03-30T07:51:09;95105.81;;;10.38;41.51
77889;BME280;67082;41.704;44.768;2023-03-30T07:53:47;95119.00;;;10.61;41.44
77889;BME280;67082;41.704;44.768;2023-03-30T07:56:28;95114.22;;;10.61;41.00
77889;BME280;67082;41.704;44.768;2023-03-30T07:58:59;95100.50;;;10.67;42.13
77889;BME280;67082;41.704;44.768;2023-03-30T08:01:33;95108.47;;;11.15;40.74
77889;BME280;67082;41.704;44.768;2023-03-30T08:04:32;95094.88;;;10.93;40.28
77889;BME280;67082;41.704;44.768;2023-03-30T08:07:00;95107.31;;;10.98;40.29
77889;BME280;67082;41.704;44.768;2023-03-30T08:09:30;95114.84;;;11.06;40.09
77889;BME280;67082;41.704;44.768;2023-03-30T08:11:58;95115.47;;;11.01;39.49
77889;BME280;67082;41.704;44.768;2023-03-30T08:14:27;95099.94;;;10.95;40.08
77889;BME280;67082;41.704;44.768;2023-03-30T08:16:55;95090.44;;;10.87;40.49
77889;BME280;67082;41.704;44.768;2023-03-30T08:19:24;95096.34;;;11.03;40.18
77889;BME280;67082;41.704;44.768;2023-03-30T08:21:52;95087.00;;;11.24;39.55
77889;BME280;67082;41.704;44.768;2023-03-30T08:24:20;95072.25;;;11.18;39.66
77889;BME280;67082;41.704;44.768;2023-03-30T08:26:48;95066.75;;;11.09;39.26
77889;BME280;67082;41.704;44.768;2023-03-30T08:29:16;95082.81;;;11.05;39.10
77889;BME280;67082;41.704;44.768;2023-03-30T08:31:45;95080.75;;;11.15;38.90
77889;BME280;67082;41.704;44.768;2023-03-30T08:34:14;95112.41;;;10.99;38.33
77889;BME280;67082;41.704;44.768;2023-03-30T08:36:42;95102.22;;;11.05;38.88
77889;BME280;67082;41.704;44.768;2023-03-30T08:39:10;95095.78;;;10.90;39.33
77889;BME280;67082;41.704;44.768;2023-03-30T08:44:33;95092.94;;;11.08;37.93
77889;BME280;67082;41.704;44.768;2023-03-30T08:47:05;95062.00;;;11.33;37.61
77889;BME280;67082;41.704;44.768;2023-03-30T08:49:40;95082.34;;;11.07;37.35
77889;BME280;67082;41.704;44.768;2023-03-30T08:52:20;95062.69;;;11.19;37.22
77889;BME280;67082;41.704;44.768;2023-03-30T08:54:50;95050.44;;;11.11;37.42
77889;BME280;67082;41.704;44.768;2023-03-30T09:00:35;95060.22;;;11.45;37.30
77889;BME280;67082;41.704;44.768;2023-03-30T09:03:15;95099.47;;;11.29;37.64
77889;BME280;67082;41.704;44.768;2023-03-30T09:05:51;95037.88;;;11.25;38.01
77889;BME280;67082;41.704;44.768;2023-03-30T09:08:23;95055.59;;;11.27;37.50
77889;BME280;67082;41.704;44.768;2023-03-30T09:11:01;95042.81;;;11.21;37.64
77889;BME280;67082;41.704;44.768;2023-03-30T09:13:33;95036.09;;;11.36;37.64
77889;BME280;67082;41.704;44.768;2023-03-30T09:16:17;95052.38;;;11.43;38.11
77889;BME280;67082;41.704;44.768;2023-03-30T09:18:53;95085.72;;;11.58;37.78
77889;BME280;67082;41.704;44.768;2023-03-30T09:21:27;95058.75;;;11.35;38.46
77889;BME280;67082;41.704;44.768;2023-03-30T09:23:58;95029.78;;;11.59;38.17
77889;BME280;67082;41.704;44.768;2023-03-30T09:29:17;95022.34;;;11.65;37.21
77889;BME280;67082;41.704;44.768;2023-03-30T09:32:12;95043.94;;;11.61;36.96
77889;BME280;67082;41.704;44.768;2023-03-30T09:37:38;95028.97;;;11.44;37.17
77889;BME280;67082;41.704;44.768;2023-03-30T09:40:43;95034.41;;;11.62;36.40
77889;BME280;67082;41.704;44.768;2023-03-30T09:45:55;95015.28;;;11.64;36.03
77889;BME280;67082;41.704;44.768;2023-03-30T09:48:25;95026.97;;;11.68;35.48
77889;BME280;67082;41.704;44.768;2023-03-30T09:50:53;95021.97;;;11.72;36.20
77889;BME280;67082;41.704;44.768;2023-03-30T09:56:07;95018.75;;;11.88;36.80
77889;BME280;67082;41.704;44.768;2023-03-30T09:58:37;95016.09;;;11.79;36.09
77889;BME280;67082;41.704;44.768;2023-03-30T10:01:16;95016.50;;;11.63;37.40
77889;BME280;67082;41.704;44.768;2023-03-30T10:04:06;95019.56;;;11.65;37.57
77889;BME280;67082;41.704;44.768;2023-03-30T10:06:38;95023.88;;;11.66;36.88
77889;BME280;67082;41.704;44.768;2023-03-30T10:09:12;95004.84;;;11.74;37.05
77889;BME280;67082;41.704;44.768;2023-03-30T10:11:54;95021.25;;;11.25;36.80
77889;BME280;67082;41.704;44.768;2023-03-30T10:14:33;95002.75;;;11.69;36.66
77889;BME280;67082;41.704;44.768;2023-03-30T10:17:03;94991.56;;;11.78;36.12
77889;BME280;67082;41.704;44.768;2023-03-30T10:19:33;95011.25;;;11.18;37.33
77889;BME280;67082;41.704;44.768;2023-03-30T10:22:13;94983.69;;;11.38;37.27
77889;BME280;67082;41.704;44.768;2023-03-30T10:24:54;95023.88;;;11.19;38.30
77889;BME280;67082;41.704;44.768;2023-03-30T10:27:32;95051.50;;;11.14;38.02
77889;BME280;67082;41.704;44.768;2023-03-30T10:30:08;94995.41;;;11.19;37.54
77889;BME280;67082;41.704;44.768;2023-03-30T10:32:37;94981.31;;;11.69;37.44
77889;BME280;67082;41.704;44.768;2023-03-30T10:35:09;94968.38;;;11.66;36.27
77889;BME280;67082;41.704;44.768;2023-03-30T10:37:39;94980.09;;;11.85;36.22
77889;BME280;67082;41.704;44.768;2023-03-30T10:40:16;94999.91;;;11.92;36.22
77889;BME280;67082;41.704;44.768;2023-03-30T10:42:47;94979.91;;;11.88;36.26
77889;BME280;67082;41.704;44.768;2023-03-30T10:45:21;94966.13;;;11.94;35.77
77889;BME280;67082;41.704;44.768;2023-03-30T10:53:42;94964.41;;;12.25;36.70
77889;BME280;67082;41.704;44.768;2023-03-30T11:04:26;94955.97;;;11.76;37.37
77889;BME280;67082;41.704;44.768;2023-03-30T11:06:57;94962.09;;;11.80;36.37
77889;BME280;67082;41.704;44.768;2023-03-30T11:09:31;94986.44;;;12.29;36.00
77889;BME280;67082;41.704;44.768;2023-03-30T11:12:11;94958.06;;;11.81;36.24
77889;BME280;67082;41.704;44.768;2023-03-30T11:14:55;94955.38;;;11.87;36.71
77889;BME280;67082;41.704;44.768;2023-03-30T11:17:45;94949.34;;;11.74;37.08
77889;BME280;67082;41.704;44.768;2023-03-30T11:20:24;94930.97;;;11.91;37.21
77889;BME280;67082;41.704;44.768;2023-03-30T11:23:17;94951.19;;;11.91;35.89
77889;BME280;67082;41.704;44.768;2023-03-30T11:25:55;94956.25;;;11.93;35.89
77889;BME280;67082;41.704;44.768;2023-03-30T11:28:58;94980.50;;;12.21;36.11
77889;BME280;67082;41.704;44.768;2023-03-30T11:36:30;94949.81;;;11.72;36.09
77889;BME280;67082;41.704;44.768;2023-03-30T11:39:05;94942.94;;;12.11;35.97
77889;BME280;67082;41.704;44.768;2023-03-30T11:42:34;94923.69;;;12.22;34.78
77889;BME280;67082;41.704;44.768;2023-03-30T12:05:34;94937.13;;;11.95;35.51
77889;BME280;67082;41.704;44.768;2023-03-30T12:08:37;94945.63;;;11.77;35.50
77889;BME280;67082;41.704;44.768;2023-03-30T12:13:40;94960.50;;;11.50;36.42
77889;BME280;67082;41.704;44.768;2023-03-30T12:16:23;94934.03;;;11.78;36.73
77889;BME280;67082;41.704;44.768;2023-03-30T12:21:48;94933.75;;;11.76;36.02
77889;BME280;67082;41.704;44.768;2023-03-30T12:26:47;94939.09;;;11.65;35.94
77889;BME280;67082;41.704;44.768;2023-03-30T12:29:48;94941.59;;;11.63;36.88
77889;BME280;67082;41.704;44.768;2023-03-30T12:32:23;94927.75;;;11.54;37.03
77889;BME280;67082;41.704;44.768;2023-03-30T12:34:56;94956.16;;;11.49;37.00
77889;BME280;67082;41.704;44.768;2023-03-30T12:37:30;94931.03;;;10.91;37.05
77889;BME280;67082;41.704;44.768;2023-03-30T12:40:06;94958.81;;;10.82;37.83
77889;BME280;67082;41.704;44.768;2023-03-30T12:43:05;94949.41;;;11.27;37.86
77889;BME280;67082;41.704;44.768;2023-03-30T12:45:51;94969.66;;;10.95;38.28
77889;BME280;67082;41.704;44.768;2023-03-30T12:48:46;94951.06;;;10.86;38.07
77889;BME280;67082;41.704;44.768;2023-03-30T12:54:38;94986.19;;;11.13;38.12
77889;BME280;67082;41.704;44.768;2023-03-30T13:03:39;94971.22;;;10.63;38.07
77889;BME280;67082;41.704;44.768;2023-03-30T13:06:34;94964.25;;;11.00;37.99
77889;BME280;67082;41.704;44.768;2023-03-30T13:10:32;94962.47;;;11.12;37.84
77889;BME280;67082;41.704;44.768;2023-03-30T13:13:02;94950.66;;;11.26;37.38
77889;BME280;67082;41.704;44.768;2023-03-30T13:15:54;94946.00;;;11.08;37.78
77889;BME280;67082;41.704;44.768;2023-03-30T13:18:54;94957.00;;;11.41;37.27
77889;BME280;67082;41.704;44.768;2023-03-30T13:21:24;94965.97;;;11.21;37.34
77889;BME280;67082;41.704;44.768;2023-03-30T13:27:35;94974.00;;;10.63;37.25
77889;BME280;67082;41.704;44.768;2023-03-30T13:30:15;94963.31;;;10.48;37.62
77889;BME280;67082;41.704;44.768;2023-03-30T13:33:02;94981.53;;;10.63;37.75
77889;BME280;67082;41.704;44.768;2023-03-30T13:41:18;95005.78;;;10.45;38.23
77889;BME280;67082;41.704;44.768;2023-03-30T13:47:23;94988.69;;;10.46;38.65
77889;BME280;67082;41.704;44.768;2023-03-30T13:49:58;95002.72;;;10.43;38.63
77889;BME280;67082;41.704;44.768;2023-03-30T13:52:41;95019.78;;;10.50;38.78
77889;BME280;67082;41.704;44.768;2023-03-30T13:55:34;95014.53;;;10.52;38.60
77889;BME280;67082;41.704;44.768;2023-03-30T14:00:59;95023.06;;;10.31;38.29
77889;BME280;67082;41.704;44.768;2023-03-30T14:03:39;95006.91;;;10.29;38.51
77889;BME280;67082;41.704;44.768;2023-03-30T14:08:46;95026.81;;;10.01;38.35
77889;BME280;67082;41.704;44.768;2023-03-30T14:11:20;95026.97;;;9.79;38.98
77889;BME280;67082;41.704;44.768;2023-03-30T14:13:52;95044.63;;;10.00;38.39
77889;BME280;67082;41.704;44.768;2023-03-30T14:16:27;95048.34;;;9.79;39.00
77889;BME280;67082;41.704;44.768;2023-03-30T14:19:17;95047.53;;;9.96;38.59
77889;BME280;67082;41.704;44.768;2023-03-30T14:21:50;95060.63;;;9.87;38.13
77889;BME280;67082;41.704;44.768;2023-03-30T14:24:31;95048.00;;;9.77;38.77
77889;BME280;67082;41.704;44.768;2023-03-30T14:27:03;95069.25;;;9.62;38.60
77889;BME280;67082;41.704;44.768;2023-03-30T14:29:32;95071.81;;;9.38;38.78
77889;BME280;67082;41.704;44.768;2023-03-30T14:32:01;95055.84;;;9.33;38.63
77889;BME280;67082;41.704;44.768;2023-03-30T14:34:36;95073.38;;;9.57;39.02
77889;BME280;67082;41.704;44.768;2023-03-30T14:37:06;95088.28;;;9.60;38.59
77889;BME280;67082;41.704;44.768;2023-03-30T14:39:41;95065.84;;;9.76;38.53
77889;BME280;67082;41.704;44.768;2023-03-30T14:42:17;95073.69;;;9.41;38.27
77889;BME280;67082;41.704;44.768;2023-03-30T14:44:50;95097.63;;;9.44;39.05
77889;BME280;67082;41.704;44.768;2023-03-30T14:47:23;95090.72;;;9.40;39.21
77889;BME280;67082;41.704;44.768;2023-03-30T14:49:56;95095.75;;;9.32;39.37
77889;BME280;67082;41.704;44.768;2023-03-30T14:52:37;95088.22;;;9.24;39.82
77889;BME280;67082;41.704;44.768;2023-03-30T14:55:06;95103.31;;;9.41;39.56
77889;BME280;67082;41.704;44.768;2023-03-30T14:57:41;95103.47;;;9.37;39.97
77889;BME280;67082;41.704;44.768;2023-03-30T15:00:13;95101.75;;;9.22;40.05
77889;BME280;67082;41.704;44.768;2023-03-30T15:05:20;95104.63;;;9.09;40.35
77889;BME280;67082;41.704;44.768;2023-03-30T15:07:50;95102.78;;;9.15;40.88
77889;BME280;67082;41.704;44.768;2023-03-30T15:10:22;95124.75;;;9.10;40.71
77889;BME280;67082;41.704;44.768;2023-03-30T15:12:54;95106.00;;;9.14;40.30
77889;BME280;67082;41.704;44.768;2023-03-30T15:15:28;95122.88;;;9.07;40.96
77889;BME280;67082;41.704;44.768;2023-03-30T15:17:58;95131.16;;;9.07;40.73
77889;BME280;67082;41.704;44.768;2023-03-30T15:20:28;95123.31;;;9.05;40.36
77889;BME280;67082;41.704;44.768;2023-03-30T15:22:58;95116.25;;;8.65;41.94
77889;BME280;67082;41.704;44.768;2023-03-30T15:25:32;95119.53;;;8.81;40.63
77889;BME280;67082;41.704;44.768;2023-03-30T15:28:05;95127.88;;;8.60;41.35
77889;BME280;67082;41.704;44.768;2023-03-30T15:30:37;95152.25;;;8.83;41.38
77889;BME280;67082;41.704;44.768;2023-03-30T15:33:41;95155.28;;;8.76;41.42
77889;BME280;67082;41.704;44.768;2023-03-30T15:38:47;95151.59;;;8.79;42.05
77889;BME280;67082;41.704;44.768;2023-03-30T15:41:19;95160.81;;;8.76;41.43
77889;BME280;67082;41.704;44.768;2023-03-30T15:43:57;95166.94;;;8.49;41.88
77889;BME280;67082;41.704;44.768;2023-03-30T15:46:25;95163.38;;;8.40;42.44
77889;BME280;67082;41.704;44.768;2023-03-30T15:48:57;95179.78;;;8.43;42.18
77889;BME280;67082;41.704;44.768;2023-03-30T15:51:39;95184.34;;;8.59;42.04
77889;BME280;67082;41.704;44.768;2023-03-30T15:54:17;95187.63;;;8.66;41.76
77889;BME280;67082;41.704;44.768;2023-03-30T15:59:17;95195.03;;;8.57;41.50